^^
Station Historical Data
Daily Summary for August 7, 2017 Units:  Metric    English   Both
« Previous Day
Next Day »
Daily Weekly Monthly Yearly Custom
  High: Low: Average:
Temperature: 25.1 °C 7.4 °C 13.5 °C
Dew Point: -6.5 °C -10.7 °C -7.7 °C
Humidity: 33% 9% 24%
Wind Speed: 16.3km/h 0km/h 1.8km/h
Wind Gust: 22.5km/h - -
Wind- - West
Pressure: 1022.2 hPa 1016.1 hPa -
Precipitation: 0 mm    
Historical Graphs
 
 
Tabular Data for August 7, 2017
Time Temperature Dew Point Pressure Wind Wind Speed Wind Gust Humidity Rainfall Rate (Hourly) solar Conditions
00:03 11.2 °C -7.6 °C 1021.9 hPa Calm     26% 0 mm 0.0 W/m2
00:08 10.8 °C -7.5 °C 1021.6 hPa Calm     27% 0 mm 0.0 W/m2
00:13 10.6 °C -7.2 °C 1021.6 hPa Calm     28% 0 mm 0.0 W/m2
00:19 10.4 °C -7.3 °C 1021.6 hPa Calm     28% 0 mm 0.0 W/m2
00:24 10.6 °C -7.2 °C 1021.6 hPa Calm     28% 0 mm 0.0 W/m2
00:34 10.8 °C -8 °C 1021.2 hPa Calm     26% 0 mm 0.0 W/m2
00:39 10.7 °C -7.6 °C 1021.2 hPa Calm     27% 0 mm 0.0 W/m2
00:44 10.9 °C -7.4 °C 1021.2 hPa Calm     27% 0 mm 0.0 W/m2
00:49 11.1 °C -7.2 °C 1021.2 hPa Calm     27% 0 mm 0.0 W/m2
00:54 11.6 °C -7.3 °C 1021.2 hPa Calm     26% 0 mm 0.0 W/m2
01:00 12.1 °C -6.8 °C 1021.2 hPa Calm     26% 0 mm 0.0 W/m2
01:05 12.7 °C -6.8 °C 1021.2 hPa Calm     25% 0 mm 0.0 W/m2
01:10 13 °C -6.6 °C 1021.2 hPa Calm     25% 0 mm 0.0 W/m2
01:15 13.2 °C -6.9 °C 1021.2 hPa Calm     24% 0 mm 0.0 W/m2
01:20 13.2 °C -6.9 °C 1021.2 hPa Calm     24% 0 mm 0.0 W/m2
01:25 13.4 °C -6.8 °C 1021.2 hPa Calm     24% 0 mm 0.0 W/m2
01:30 13.5 °C -6.7 °C 1021.2 hPa Calm     24% 0 mm 0.0 W/m2
01:36 13.5 °C -6.7 °C 1021.2 hPa Calm     24% 0 mm 0.0 W/m2
01:41 13.4 °C -6.8 °C 1021.2 hPa Calm     24% 0 mm 0.0 W/m2
01:47 13.2 °C -6.9 °C 1021.2 hPa Calm     24% 0 mm 0.0 W/m2
01:57 13.2 °C -6.9 °C 1020.9 hPa Calm   8 km/h 24% 0 mm 0.0 W/m2
02:07 13.1 °C -7 °C 1020.5 hPa Calm   9.7 km/h 24% 0 mm 0.0 W/m2
02:17 12.7 °C -7.4 °C 1020.5 hPa Calm   8 km/h 24% 0 mm 0.0 W/m2
02:27 12.4 °C -7.1 °C 1020.5 hPa WSW 6.4 km/h 8 km/h 25% 0 mm 0.0 W/m2
02:37 12.4 °C -7.1 °C 1020.5 hPa WSW 7.9 km/h 9.7 km/h 25% 0 mm 0.0 W/m2
02:42 12.4 °C -7.1 °C 1020.5 hPa Calm   6.4 km/h 25% 0 mm 0.0 W/m2
02:47 12.4 °C -7.1 °C 1020.5 hPa Calm   8 km/h 25% 0 mm 0.0 W/m2
02:57 12.5 °C -7 °C 1020.5 hPa WSW 4.7 km/h 11.3 km/h 25% 0 mm 0.0 W/m2
03:07 12.6 °C -6.9 °C 1020.5 hPa Calm   3.2 km/h 25% 0 mm 0.0 W/m2
03:13 12.4 °C -7.6 °C 1020.5 hPa Calm   1.6 km/h 24% 0 mm 0.0 W/m2
03:28 12.3 °C -7.2 °C 1020.5 hPa Calm   3.2 km/h 25% 0 mm 0.0 W/m2
03:34 12.2 °C -7.3 °C 1020.5 hPa Calm     25% 0 mm 0.0 W/m2
03:39 11.9 °C -7.5 °C 1020.2 hPa Calm   1.6 km/h 25% 0 mm 0.0 W/m2
03:44 11.4 °C -7.9 °C 1020.2 hPa WSW 3.2 km/h 6.4 km/h 25% 0 mm 0.0 W/m2
03:49 10.9 °C -7.9 °C 1020.5 hPa Calm     26% 0 mm 0.0 W/m2
03:54 10.5 °C -7.7 °C 1020.5 hPa Calm     27% 0 mm 0.0 W/m2
04:05 10.2 °C -7.5 °C 1020.5 hPa Calm   1.6 km/h 28% 0 mm 0.0 W/m2
04:16 9.8 °C -7.9 °C 1020.5 hPa Calm     28% 0 mm 0.0 W/m2
04:21 9.6 °C -8 °C 1020.5 hPa Calm     28% 0 mm 0.0 W/m2
04:26 9.3 °C -7.8 °C 1020.5 hPa Calm     29% 0 mm 0.0 W/m2
04:31 9.1 °C -8 °C 1020.5 hPa Calm     29% 0 mm 0.0 W/m2
04:36 8.9 °C -8.2 °C 1020.5 hPa Calm     29% 0 mm 0.0 W/m2
04:46 8.4 °C -8.2 °C 1020.5 hPa Calm     30% 0 mm 0.0 W/m2
04:51 8.2 °C -7.9 °C 1020.5 hPa Calm     31% 0 mm 0.0 W/m2
04:56 8.1 °C -8 °C 1020.5 hPa Calm     31% 0 mm 0.0 W/m2
05:01 8 °C -8.1 °C 1020.5 hPa Calm     31% 0 mm 0.0 W/m2
05:07 7.9 °C -8.2 °C 1020.9 hPa Calm     31% 0 mm 0.0 W/m2
05:12 8 °C -7.7 °C 1020.9 hPa Calm     32% 0 mm 0.0 W/m2
05:17 8.1 °C -8 °C 1020.9 hPa Calm     31% 0 mm 0.0 W/m2
05:22 8 °C -8.1 °C 1021.2 hPa Calm     31% 0 mm 0.0 W/m2
05:27 7.8 °C -8.3 °C 1021.2 hPa Calm     31% 0 mm 0.0 W/m2
05:32 7.6 °C -8.1 °C 1021.2 hPa Calm     32% 0 mm 0.0 W/m2
05:37 7.4 °C -8.2 °C 1021.2 hPa Calm     32% 0 mm 0.0 W/m2
05:47 7.4 °C -7.8 °C 1021.2 hPa WSW 6.4 km/h 8 km/h 33% 0 mm 0.0 W/m2
05:53 8.1 °C -7.6 °C 1021.2 hPa WSW 3.2 km/h 9.7 km/h 32% 0 mm 0.0 W/m2
06:03 9.3 °C -7.4 °C 1021.2 hPa WSW 3.2 km/h 11.3 km/h 30% 0 mm 0.0 W/m2
06:08 9.4 °C -7.8 °C 1021.2 hPa WSW 1.4 km/h 12.9 km/h 29% 0 mm 0.0 W/m2
06:13 9.3 °C -7.8 °C 1021.2 hPa WSW 6.4 km/h 14.5 km/h 29% 0 mm 0.0 W/m2
06:18 9.2 °C -7.9 °C 1021.2 hPa WSW 9.7 km/h 12.9 km/h 29% 0 mm 0.0 W/m2
06:28 8.9 °C -7.7 °C 1021.6 hPa Calm   11.3 km/h 30% 0 mm 5.0 W/m2
06:43 8.9 °C -8.2 °C 1021.6 hPa WSW 7.9 km/h 11.3 km/h 29% 0 mm 12.0 W/m2
06:49 9.2 °C -7.9 °C 1021.6 hPa WSW 1.4 km/h 11.3 km/h 29% 0 mm 14.0 W/m2
06:59 9.3 °C -7.8 °C 1021.6 hPa WSW 4.7 km/h 8 km/h 29% 0 mm 25.0 W/m2
07:07 9.1 °C -8 °C 1021.6 hPa WSW 3.2 km/h 8 km/h 29% 0 mm 42.0 W/m2
07:19 9.4 °C -7.8 °C 1021.6 hPa Calm   6.4 km/h 29% 0 mm 95.0 W/m2
07:29 10.4 °C -7.3 °C 1021.9 hPa Calm     28% 0 mm 123.0 W/m2
07:44 11.2 °C -7.1 °C 1021.9 hPa WSW 1.4 km/h 6.4 km/h 27% 0 mm 181.0 W/m2
07:50 12 °C -6.9 °C 1022.2 hPa Calm     26% 0 mm 225.0 W/m2
08:12 13.3 °C -6.9 °C 1022.2 hPa Calm   8 km/h 24% 0 mm 272.0 W/m2
08:21 14.4 °C -6.5 °C 1022.2 hPa WSW 1.4 km/h 9.7 km/h 23% 0 mm 318.0 W/m2
08:35 15.1 °C -6.5 °C 1021.9 hPa WSW 7.9 km/h 12.9 km/h 22% 0 mm 346.0 W/m2
08:46 15.5 °C -6.7 °C 1021.9 hPa WSW 6.4 km/h 9.7 km/h 21% 0 mm 378.0 W/m2
08:56 16 °C -7 °C 1021.9 hPa WSW 7.9 km/h 12.9 km/h 20% 0 mm 420.0 W/m2
09:10 16.1 °C -6.9 °C 1021.9 hPa WSW 16.3 km/h 16.3 km/h 20% 0 mm 441.0 W/m2
09:16 16.6 °C -7.1 °C 1021.9 hPa WSW 4.7 km/h 17.7 km/h 19% 0 mm 475.0 W/m2
09:31 16.8 °C -7 °C 1021.9 hPa West 9.7 km/h 17.7 km/h 19% 0 mm 438.0 W/m2
09:49 16.9 °C -6.9 °C 1021.9 hPa West 6.4 km/h 17.7 km/h 19% 0 mm 559.0 W/m2
10:00 17.2 °C -7.3 °C 1021.9 hPa West 13 km/h 22.5 km/h 18% 0 mm 563.0 W/m2
10:09 17.6 °C -7 °C 1021.6 hPa Calm   9.7 km/h 18% 0 mm 575.0 W/m2
10:19 18 °C -6.7 °C 1021.6 hPa West 6.4 km/h 11.3 km/h 18% 0 mm 592.0 W/m2
10:27 18.3 °C -7.2 °C 1021.6 hPa West 6.4 km/h 12.9 km/h 17% 0 mm 610.0 W/m2
13:38 23.7 °C -7.4 °C 1017.5 hPa Calm   20.9 km/h 12% 0 mm 591.0 W/m2
14:04 24.1 °C -7.1 °C 1017.2 hPa NW 1.4 km/h 11.3 km/h 12% 0 mm 550.0 W/m2
14:19 24.1 °C -7.1 °C 1016.8 hPa NW 3.2 km/h 8 km/h 12% 0 mm 573.0 W/m2
14:32 24.5 °C -7.9 °C 1016.8 hPa NW 7.9 km/h 14.5 km/h 11% 0 mm 533.0 W/m2
14:43 24.4 °C -8 °C 1016.5 hPa Calm   6.4 km/h 11% 0 mm 422.0 W/m2
15:03 24.9 °C -8.8 °C 1016.5 hPa NW 7.9 km/h 11.3 km/h 10% 0 mm 443.0 W/m2
15:13 24.8 °C -8.9 °C 1016.1 hPa Calm     10% 0 mm 329.0 W/m2
15:41 25.1 °C -8.7 °C 1016.1 hPa Calm     10% 0 mm 209.0 W/m2
15:55 25 °C -8.7 °C 1016.1 hPa Calm     10% 0 mm 301.0 W/m2
16:30 24.7 °C -10.3 °C 1016.1 hPa Calm     9% 0 mm 149.0 W/m2
16:42 24.4 °C -9.2 °C 1016.1 hPa Calm     10% 0 mm 44.0 W/m2
17:11 22.8 °C -9.2 °C 1016.1 hPa Calm     11% 0 mm 18.0 W/m2
17:22 21.9 °C -9.9 °C 1016.1 hPa Calm     11% 0 mm 9.0 W/m2
17:30 20.9 °C -10.7 °C 1016.1 hPa Calm     11% 0 mm 5.0 W/m2
17:39 20.1 °C -10.2 °C 1016.1 hPa Calm     12% 0 mm 0.0 W/m2
17:46 19.7 °C -10.5 °C 1016.1 hPa Calm     12% 0 mm 0.0 W/m2
Canyon Roadhouse, Fishriver Canyon, Namibia
Compliments of Weather Underground - 2 mb